createdAt,value
2018-05-13T00:00:11.374Z,3.40
2018-05-13T00:02:39.650Z,3.10
2018-05-13T00:05:07.914Z,3.07
2018-05-13T00:07:35.435Z,3.47
2018-05-13T00:10:02.934Z,3.37
2018-05-13T00:12:30.432Z,3.87
2018-05-13T00:14:57.911Z,3.57
2018-05-13T00:17:25.390Z,4.37
2018-05-13T00:19:52.895Z,5.00
2018-05-13T00:22:20.396Z,4.20
2018-05-13T00:24:47.900Z,3.60
2018-05-13T00:27:15.414Z,4.07
2018-05-13T00:29:42.953Z,3.73
2018-05-13T00:32:10.448Z,3.50
2018-05-13T00:34:37.959Z,3.20
2018-05-13T00:37:05.444Z,3.60
2018-05-13T00:39:32.903Z,4.03
2018-05-13T00:42:00.382Z,4.17
2018-05-13T00:44:27.862Z,3.40
2018-05-13T00:46:56.128Z,3.80
2018-05-13T00:49:23.591Z,5.50
2018-05-13T00:51:51.858Z,5.00
2018-05-13T00:54:31.121Z,4.77
2018-05-13T00:56:58.635Z,4.13
2018-05-13T00:59:26.913Z,3.80
2018-05-13T01:01:54.438Z,4.40
2018-05-13T01:04:21.938Z,4.70
2018-05-13T01:06:49.458Z,4.10
2018-05-13T01:09:16.971Z,5.00
2018-05-13T01:11:45.207Z,4.67
2018-05-13T01:14:12.734Z,4.40
2018-05-13T01:16:40.203Z,4.03
2018-05-13T01:19:07.682Z,4.00
2018-05-13T01:21:35.177Z,4.80
2018-05-13T01:24:03.420Z,4.03
2018-05-13T01:26:30.914Z,5.03
2018-05-13T01:28:59.159Z,4.57
2018-05-13T01:31:26.666Z,4.57
2018-05-13T01:33:54.181Z,3.57
2018-05-13T01:36:21.674Z,4.50
2018-05-13T01:38:49.151Z,3.53
2018-05-13T01:41:16.631Z,3.93
2018-05-13T01:43:44.113Z,3.87
2018-05-13T01:46:11.597Z,3.83
2018-05-13T01:48:39.871Z,6.83
2018-05-13T01:51:08.144Z,3.73
2018-05-13T01:53:36.393Z,4.30
2018-05-13T01:56:03.887Z,4.50
2018-05-13T01:58:32.158Z,4.03
2018-05-13T02:01:00.423Z,4.47
2018-05-13T02:03:27.929Z,4.47
2018-05-13T02:05:55.424Z,4.20
2018-05-13T02:08:22.894Z,4.90
2018-05-13T02:10:50.396Z,4.37
2018-05-13T02:13:17.892Z,4.47
2018-05-13T02:15:45.375Z,4.37
2018-05-13T02:18:13.620Z,4.20
2018-05-13T02:20:41.172Z,3.70
2018-05-13T02:23:08.664Z,4.00
2018-05-13T02:25:36.182Z,3.77
2018-05-13T02:28:03.673Z,4.63
2018-05-13T02:30:31.147Z,5.43
2018-05-13T02:32:59.447Z,4.23
2018-05-13T02:35:26.933Z,4.27
2018-05-13T02:37:54.417Z,3.93
2018-05-13T02:40:21.899Z,3.40
2018-05-13T02:42:50.158Z,4.97
2018-05-13T02:45:17.631Z,3.70
2018-05-13T02:47:45.891Z,3.70
2018-05-13T02:50:13.362Z,4.57
2018-05-13T02:52:40.842Z,4.60
2018-05-13T02:55:08.366Z,4.27
2018-05-13T02:57:35.842Z,4.43
2018-05-13T03:00:04.100Z,4.77
2018-05-13T03:02:31.582Z,4.53
2018-05-13T03:04:59.840Z,4.30
2018-05-13T03:07:28.121Z,4.27
2018-05-13T03:09:56.371Z,4.73
2018-05-13T03:12:23.880Z,4.33
2018-05-13T03:14:51.348Z,4.50
2018-05-13T03:17:18.822Z,5.53
2018-05-13T03:19:46.326Z,4.30
2018-05-13T03:22:13.835Z,4.60
2018-05-13T03:24:42.076Z,4.30
2018-05-13T03:27:10.351Z,4.50
2018-05-13T03:29:38.600Z,4.60
2018-05-13T03:32:06.095Z,4.47
2018-05-13T03:34:33.600Z,4.57
2018-05-13T03:37:01.111Z,4.77
2018-05-13T03:39:28.625Z,4.30
2018-05-13T03:41:56.121Z,3.67
2018-05-13T03:44:24.375Z,4.07
2018-05-13T03:46:51.844Z,3.70
2018-05-13T03:49:19.326Z,4.40
2018-05-13T03:51:46.815Z,4.00
2018-05-13T03:54:14.316Z,4.07
2018-05-13T03:56:42.574Z,3.50
2018-05-13T03:59:10.060Z,3.73
2018-05-13T04:01:38.322Z,4.03
2018-05-13T04:04:06.597Z,4.27
2018-05-13T04:06:34.089Z,4.40
2018-05-13T04:09:13.294Z,4.73
2018-05-13T04:11:53.522Z,4.80
2018-05-13T04:14:32.847Z,3.93
2018-05-13T04:17:00.354Z,4.10
2018-05-13T04:19:28.597Z,4.70
2018-05-13T04:21:56.086Z,4.17
2018-05-13T04:24:24.331Z,4.10
2018-05-13T04:26:51.835Z,4.90
2018-05-13T04:29:19.500Z,3.87
2018-05-13T04:31:47.061Z,4.40
2018-05-13T04:34:14.532Z,5.03
2018-05-13T04:36:42.039Z,4.27
2018-05-13T04:39:09.511Z,4.70
2018-05-13T04:41:37.775Z,4.17
2018-05-13T04:44:05.283Z,4.83
2018-05-13T04:46:32.747Z,3.90
2018-05-13T04:49:00.196Z,3.70
2018-05-13T04:51:27.661Z,3.90
2018-05-13T04:53:55.116Z,3.93
2018-05-13T04:56:22.591Z,3.83
2018-05-13T04:58:50.833Z,3.67
2018-05-13T05:01:18.318Z,3.97
2018-05-13T05:03:45.764Z,4.13
2018-05-13T05:06:13.220Z,5.33
2018-05-13T05:08:40.699Z,5.50
2018-05-13T05:11:08.943Z,5.00
2018-05-13T05:13:36.430Z,4.40
2018-05-13T05:16:04.672Z,4.87
2018-05-13T05:18:32.127Z,5.20
2018-05-13T05:20:59.600Z,5.00
2018-05-13T05:23:27.058Z,5.77
2018-05-13T05:25:54.533Z,4.80
2018-05-13T05:28:22.763Z,5.00
2018-05-13T05:30:50.239Z,4.53
2018-05-13T05:33:17.688Z,4.60
2018-05-13T05:35:45.211Z,5.17
2018-05-13T05:38:12.646Z,5.43
2018-05-13T05:40:40.896Z,3.87
2018-05-13T05:43:08.380Z,3.80
2018-05-13T05:45:36.607Z,3.93
2018-05-13T05:48:04.060Z,3.57
2018-05-13T05:50:31.544Z,4.87
2018-05-13T05:52:58.996Z,3.60
2018-05-13T05:55:26.460Z,3.63
2018-05-13T05:57:53.946Z,3.50
2018-05-13T06:00:22.191Z,3.90
2018-05-13T06:02:49.680Z,3.27
2018-05-13T06:05:17.920Z,4.83
2018-05-13T06:07:45.403Z,3.83
2018-05-13T06:10:12.880Z,3.77
2018-05-13T06:12:41.613Z,4.30
2018-05-13T06:15:09.102Z,3.73
2018-05-13T06:17:36.562Z,3.13
2018-05-13T06:20:04.038Z,2.67
2018-05-13T06:22:32.276Z,3.20
2018-05-13T06:24:59.804Z,2.73
2018-05-13T06:27:27.267Z,2.53
2018-05-13T06:29:55.338Z,2.60
2018-05-13T06:32:22.796Z,3.73
2018-05-13T06:34:50.291Z,3.17
2018-05-13T06:37:17.763Z,2.90
2018-05-13T06:39:45.297Z,2.87
2018-05-13T06:42:12.672Z,3.67
2018-05-13T06:44:40.153Z,2.70
2018-05-13T06:47:08.386Z,3.40
2018-05-13T06:49:35.847Z,2.90
2018-05-13T06:52:03.329Z,4.93
2018-05-13T06:54:30.769Z,3.70
2018-05-13T06:56:58.247Z,3.17
2018-05-13T06:59:26.025Z,3.43
2018-05-13T07:01:53.529Z,3.70
2018-05-13T07:04:20.990Z,3.63
2018-05-13T07:06:48.436Z,4.20
2018-05-13T07:09:15.895Z,4.00
2018-05-13T07:11:43.370Z,3.90
2018-05-13T07:14:10.873Z,3.70
2018-05-13T07:16:39.084Z,4.30
2018-05-13T07:19:06.533Z,6.13
2018-05-13T07:21:33.982Z,4.83
2018-05-13T07:24:01.463Z,4.87
2018-05-13T07:26:29.376Z,4.50
2018-05-13T07:28:56.830Z,5.67
2018-05-13T07:31:24.305Z,4.23
2018-05-13T07:33:51.767Z,4.83
2018-05-13T07:36:19.254Z,4.10
2018-05-13T07:38:46.748Z,4.00
2018-05-13T07:41:14.227Z,6.40
2018-05-13T07:43:41.707Z,5.00
2018-05-13T07:46:09.168Z,4.90
2018-05-13T07:48:36.628Z,6.53
2018-05-13T07:51:04.176Z,7.47
2018-05-13T07:53:31.586Z,9.03
2018-05-13T07:55:59.056Z,7.40
2018-05-13T07:58:26.540Z,8.30
2018-05-13T08:00:53.984Z,8.33
2018-05-13T08:03:21.490Z,8.00
2018-05-13T08:05:49.724Z,12.07
2018-05-13T08:08:17.297Z,8.40
2018-05-13T08:10:44.769Z,10.20
2018-05-13T08:13:12.216Z,9.60
2018-05-13T08:15:39.704Z,10.73
2018-05-13T08:18:07.168Z,11.23
2018-05-13T08:20:34.727Z,11.10
2018-05-13T08:23:02.095Z,12.57
2018-05-13T08:25:29.592Z,13.43
2018-05-13T08:27:57.052Z,14.37
2018-05-13T08:30:24.516Z,13.90
2018-05-13T08:32:51.986Z,12.30
2018-05-13T08:35:20.204Z,13.40
2018-05-13T08:37:47.694Z,13.33
2018-05-13T08:40:15.160Z,11.97
2018-05-13T08:42:42.640Z,12.63
2018-05-13T08:45:10.870Z,12.67
2018-05-13T08:47:38.984Z,15.57
2018-05-13T08:50:07.241Z,14.07
2018-05-13T08:52:36.212Z,15.03
2018-05-13T08:55:03.700Z,14.30
2018-05-13T08:57:31.149Z,12.73
2018-05-13T08:59:58.656Z,13.30
2018-05-13T09:02:26.108Z,14.13
2018-05-13T09:04:53.596Z,13.43
2018-05-13T09:07:21.048Z,17.47
2018-05-13T09:09:48.556Z,14.83
2018-05-13T09:12:16.780Z,14.30
2018-05-13T09:14:44.251Z,12.93
2018-05-13T09:17:11.708Z,13.00
2018-05-13T09:19:39.180Z,10.90
2018-05-13T09:22:06.652Z,12.33
2018-05-13T09:24:34.135Z,11.73
2018-05-13T09:27:01.598Z,13.23
2018-05-13T09:29:29.685Z,12.20
2018-05-13T09:31:57.236Z,13.90
2018-05-13T09:34:24.720Z,11.80
2018-05-13T09:36:52.177Z,11.00
2018-05-13T09:39:19.661Z,13.10
2018-05-13T09:41:47.148Z,12.27
2018-05-13T09:44:15.379Z,12.87
2018-05-13T09:46:42.884Z,13.13
2018-05-13T09:49:10.359Z,13.10
2018-05-13T09:51:37.837Z,11.70
2018-05-13T09:54:05.303Z,12.73
2018-05-13T09:56:32.757Z,13.03
2018-05-13T09:59:00.228Z,13.00
2018-05-13T10:01:27.725Z,12.53
2018-05-13T10:03:56.105Z,13.83
2018-05-13T10:06:24.353Z,13.10
2018-05-13T10:08:51.816Z,12.13
2018-05-13T10:11:19.296Z,17.60
2018-05-13T10:13:47.537Z,17.67
2018-05-13T10:16:15.040Z,17.43
2018-05-13T10:18:42.528Z,19.87
2018-05-13T10:21:10.010Z,18.20
2018-05-13T10:23:37.476Z,20.03
2018-05-13T10:26:04.972Z,19.43
2018-05-13T10:28:32.449Z,20.23
2018-05-13T10:30:59.924Z,20.33
2018-05-13T10:33:27.372Z,20.67
2018-05-13T10:35:54.860Z,19.37
2018-05-13T10:38:22.344Z,20.27
2018-05-13T10:40:49.846Z,20.30
2018-05-13T10:43:17.295Z,21.53
2018-05-13T10:45:44.788Z,21.83
2018-05-13T10:48:12.241Z,22.37
2018-05-13T10:50:39.716Z,23.00
2018-05-13T10:53:07.192Z,21.97
2018-05-13T10:55:35.432Z,20.50
2018-05-13T10:58:02.907Z,21.43
2018-05-13T11:00:30.364Z,23.93
2018-05-13T11:02:57.848Z,22.37
2018-05-13T11:05:26.096Z,20.90
2018-05-13T11:07:53.599Z,20.53
2018-05-13T11:10:21.072Z,20.80
2018-05-13T11:12:48.542Z,20.63
2018-05-13T11:15:16.027Z,19.77
2018-05-13T11:17:43.512Z,18.43
2018-05-13T11:20:11.767Z,17.63
2018-05-13T11:22:40.008Z,17.60
2018-05-13T11:25:07.471Z,19.10
2018-05-13T11:27:34.948Z,19.27
2018-05-13T11:30:02.435Z,19.67
2018-05-13T11:32:30.679Z,20.93
2018-05-13T11:34:58.136Z,20.87
2018-05-13T11:37:25.613Z,20.50
2018-05-13T11:39:53.911Z,18.10
2018-05-13T11:42:21.307Z,19.90
2018-05-13T11:44:48.769Z,20.03
2018-05-13T11:47:16.240Z,20.97
2018-05-13T11:49:43.700Z,21.80
2018-05-13T11:52:11.187Z,21.50
2018-05-13T11:54:39.419Z,19.63
2018-05-13T11:57:06.921Z,21.03
2018-05-13T11:59:35.648Z,21.83
2018-05-13T12:02:03.177Z,20.37
2018-05-13T12:04:30.588Z,21.33
2018-05-13T12:06:58.056Z,21.80
2018-05-13T12:09:25.552Z,21.17
2018-05-13T12:11:53.065Z,22.70
2018-05-13T12:14:20.520Z,22.93
2018-05-13T12:16:47.977Z,22.77
2018-05-13T12:19:15.456Z,22.50
2018-05-13T12:21:42.940Z,21.63
2018-05-13T12:24:11.143Z,22.57
2018-05-13T12:26:38.680Z,21.40
2018-05-13T12:29:06.191Z,21.57
2018-05-13T12:31:33.667Z,21.13
2018-05-13T12:34:01.915Z,21.23
2018-05-13T12:36:29.391Z,20.73
2018-05-13T12:38:56.865Z,20.50
2018-05-13T12:41:25.091Z,20.67
2018-05-13T12:43:52.576Z,20.77
2018-05-13T12:46:20.036Z,21.17
2018-05-13T12:48:47.517Z,22.40
2018-05-13T12:51:14.999Z,22.00
2018-05-13T12:53:42.464Z,22.33
2018-05-13T12:56:09.973Z,19.77
2018-05-13T12:58:37.391Z,20.40
2018-05-13T13:01:04.847Z,18.47
2018-05-13T13:03:32.332Z,20.57
2018-05-13T13:05:59.818Z,18.57
2018-05-13T13:08:28.027Z,18.90
2018-05-13T13:10:55.489Z,18.43
2018-05-13T13:13:22.977Z,17.47
2018-05-13T13:15:50.451Z,17.53
2018-05-13T13:18:17.919Z,18.57
2018-05-13T13:20:46.175Z,17.23
2018-05-13T13:23:13.657Z,18.57
2018-05-13T13:25:41.911Z,18.20
2018-05-13T13:28:09.363Z,16.53
2018-05-13T13:30:36.879Z,17.33
2018-05-13T13:33:04.356Z,18.30
2018-05-13T13:35:31.839Z,16.57
2018-05-13T13:37:59.324Z,16.03
2018-05-13T13:40:27.610Z,16.97
2018-05-13T13:42:55.824Z,16.60
2018-05-13T13:45:23.277Z,15.73
2018-05-13T13:47:50.744Z,18.67
2018-05-13T13:50:18.204Z,17.77
2018-05-13T13:52:45.673Z,16.27
2018-05-13T13:55:13.139Z,16.13
2018-05-13T13:57:40.593Z,16.40
2018-05-13T14:00:09.576Z,16.23
2018-05-13T14:02:37.841Z,16.27
2018-05-13T14:05:05.349Z,16.13
2018-05-13T14:07:33.595Z,15.50
2018-05-13T14:10:01.091Z,14.47
2018-05-13T14:12:28.567Z,16.17
2018-05-13T14:14:56.024Z,15.47
2018-05-13T14:17:23.479Z,16.70
2018-05-13T14:19:50.953Z,18.17
2018-05-13T14:22:18.428Z,15.67
2018-05-13T14:24:45.917Z,16.53
2018-05-13T14:27:14.131Z,14.47
2018-05-13T14:29:42.540Z,15.13
2018-05-13T14:32:10.021Z,15.10
2018-05-13T14:34:37.488Z,14.43
2018-05-13T14:37:05.712Z,13.67
2018-05-13T14:39:33.172Z,14.10
2018-05-13T14:42:01.402Z,15.33
2018-05-13T14:44:29.622Z,15.23
2018-05-13T14:46:57.081Z,18.17
2018-05-13T14:49:24.531Z,14.03
2018-05-13T14:51:52.012Z,14.07
2018-05-13T14:54:19.479Z,14.80
2018-05-13T14:56:46.972Z,13.63
2018-05-13T14:59:15.324Z,13.23
2018-05-13T15:01:43.576Z,13.33
2018-05-13T15:04:11.028Z,12.73
2018-05-13T15:06:39.856Z,14.07
2018-05-13T15:09:08.147Z,12.50
2018-05-13T15:11:36.388Z,13.40
2018-05-13T15:14:03.867Z,11.70
2018-05-13T15:16:32.100Z,13.40
2018-05-13T15:18:59.543Z,14.43
2018-05-13T15:21:26.999Z,14.20
2018-05-13T15:23:54.483Z,13.87
2018-05-13T15:26:21.940Z,14.20
2018-05-13T15:28:49.424Z,15.83
2018-05-13T15:31:17.663Z,15.27
2018-05-13T15:33:45.841Z,15.63
2018-05-13T15:36:13.323Z,14.57
2018-05-13T15:38:40.831Z,14.40
2018-05-13T15:41:08.290Z,14.40
2018-05-13T15:43:35.760Z,15.20
2018-05-13T15:46:03.235Z,14.40
2018-05-13T15:48:30.720Z,15.70
2018-05-13T15:50:58.945Z,15.23
2018-05-13T15:53:26.435Z,14.33
2018-05-13T15:55:54.875Z,14.13
2018-05-13T15:58:22.328Z,14.43
2018-05-13T16:00:49.812Z,15.23
2018-05-13T16:03:17.267Z,15.73
2018-05-13T16:05:44.728Z,14.70
2018-05-13T16:08:12.211Z,15.67
2018-05-13T16:10:39.683Z,15.17
2018-05-13T16:13:07.940Z,16.97
2018-05-13T16:15:35.415Z,16.40
2018-05-13T16:18:03.680Z,16.67
2018-05-13T16:20:31.147Z,19.93
2018-05-13T16:22:59.403Z,21.40
2018-05-13T16:25:26.880Z,20.77
2018-05-13T16:27:55.112Z,22.67
2018-05-13T16:30:23.350Z,24.50
2018-05-13T16:32:51.580Z,24.07
2018-05-13T16:35:19.040Z,23.40
2018-05-13T16:37:46.497Z,24.47
2018-05-13T16:40:13.964Z,21.47
2018-05-13T16:42:41.417Z,26.30
2018-05-13T16:45:08.888Z,25.50
2018-05-13T16:47:37.137Z,26.77
2018-05-13T16:50:04.616Z,26.37
2018-05-13T16:52:32.087Z,25.43
2018-05-13T16:55:00.352Z,25.00
2018-05-13T16:57:28.607Z,26.67
2018-05-13T16:59:56.193Z,28.67
2018-05-13T17:02:23.676Z,31.67
2018-05-13T17:04:51.182Z,31.73
2018-05-13T17:07:18.656Z,31.30
2018-05-13T17:09:46.112Z,36.23
2018-05-13T17:12:13.611Z,34.53
2018-05-13T17:14:41.069Z,32.83
2018-05-13T17:17:08.563Z,35.83
2018-05-13T17:19:35.976Z,32.97
2018-05-13T17:22:03.457Z,33.77
2018-05-13T17:24:30.915Z,33.10
2018-05-13T17:26:58.392Z,34.40
2018-05-13T17:29:26.248Z,32.93
2018-05-13T17:31:53.736Z,29.13
2018-05-13T17:34:21.232Z,29.90
2018-05-13T17:36:48.704Z,32.30
2018-05-13T17:39:16.249Z,34.57
2018-05-13T17:41:43.655Z,30.97
2018-05-13T17:44:11.105Z,31.37
2018-05-13T17:46:39.337Z,31.83
2018-05-13T17:49:06.796Z,32.13
2018-05-13T17:51:34.283Z,30.70
2018-05-13T17:54:01.787Z,28.60
2018-05-13T17:56:29.235Z,31.03
2018-05-13T17:58:56.702Z,33.00
2018-05-13T18:01:24.933Z,31.70
2018-05-13T18:03:52.403Z,30.47
2018-05-13T18:06:20.660Z,31.67
2018-05-13T18:08:48.143Z,31.83
2018-05-13T18:11:15.600Z,35.30
2018-05-13T18:13:43.055Z,35.67
2018-05-13T18:16:10.548Z,35.67
2018-05-13T18:18:38.942Z,33.13
2018-05-13T18:21:06.259Z,34.87
2018-05-13T18:23:33.748Z,37.73
2018-05-13T18:26:01.207Z,33.60
2018-05-13T18:28:29.428Z,34.20
2018-05-13T18:30:56.910Z,39.10
2018-05-13T18:33:24.392Z,31.57
2018-05-13T18:35:52.604Z,32.80
2018-05-13T18:38:20.117Z,33.83
2018-05-13T18:40:48.344Z,33.37
2018-05-13T18:43:15.819Z,33.10
2018-05-13T18:45:43.281Z,32.60
2018-05-13T18:48:10.740Z,30.10
2018-05-13T18:50:38.225Z,32.43
2018-05-13T18:53:06.473Z,36.07
2018-05-13T18:55:33.976Z,33.77
2018-05-13T18:58:01.428Z,34.27
2018-05-13T19:00:29.187Z,33.10
2018-05-13T19:02:56.648Z,34.77
2018-05-13T19:05:24.103Z,35.20
2018-05-13T19:07:51.564Z,34.83
2018-05-13T19:12:53.072Z,35.07
2018-05-13T19:15:20.565Z,34.10
2018-05-13T19:17:48.795Z,35.83
2018-05-13T19:20:16.251Z,38.90
2018-05-13T19:22:43.721Z,37.47
2018-05-13T19:25:11.209Z,37.03
2018-05-13T19:27:38.677Z,35.33
2018-05-13T19:30:06.903Z,36.20
2018-05-13T19:32:34.373Z,36.97
2018-05-13T19:35:01.836Z,35.10
2018-05-13T19:37:29.302Z,39.20
2018-05-13T19:39:56.777Z,39.97
2018-05-13T19:42:25.020Z,37.07
2018-05-13T19:44:52.484Z,39.03
2018-05-13T19:47:19.954Z,37.87
2018-05-13T19:49:47.416Z,35.22
2018-05-13T19:52:14.895Z,39.87
2018-05-13T19:54:43.148Z,37.40
2018-05-13T19:57:10.656Z,42.50
2018-05-13T19:59:38.143Z,40.20
2018-05-13T20:02:05.599Z,40.97
2018-05-13T20:04:33.076Z,45.13
2018-05-13T20:07:00.565Z,42.27
2018-05-13T20:09:28.804Z,40.40
2018-05-13T20:11:56.279Z,48.43
2018-05-13T20:14:24.532Z,44.70
2018-05-13T20:16:51.996Z,43.83
2018-05-13T20:19:19.471Z,43.80
2018-05-13T20:21:47.729Z,49.33
2018-05-13T20:24:15.204Z,47.37
2018-05-13T20:26:43.437Z,47.20
2018-05-13T20:29:10.924Z,49.77
2018-05-13T20:31:38.384Z,49.55
2018-05-13T20:34:05.848Z,47.90
2018-05-13T20:36:33.341Z,52.23
2018-05-13T20:39:00.808Z,51.80
2018-05-13T20:41:28.303Z,56.80
2018-05-13T20:43:55.771Z,51.13
2018-05-13T20:46:23.235Z,50.97
2018-05-13T20:48:50.730Z,54.80
2018-05-13T20:51:18.291Z,53.47
2018-05-13T20:53:45.695Z,54.55
2018-05-13T20:56:13.165Z,53.47
2018-05-13T20:58:40.648Z,50.87
2018-05-13T21:01:08.136Z,50.92
2018-05-13T21:03:35.624Z,51.20
2018-05-13T21:06:03.099Z,56.27
2018-05-13T21:08:31.328Z,48.08
2018-05-13T21:10:58.829Z,45.87
2018-05-13T21:13:27.079Z,50.58
2018-05-13T21:15:54.570Z,50.87
2018-05-13T21:18:22.825Z,47.55
2018-05-13T21:20:50.324Z,50.63
2018-05-13T21:23:17.788Z,48.73
2018-05-13T21:25:45.265Z,43.70
2018-05-13T21:28:12.740Z,39.33
2018-05-13T21:30:40.200Z,37.70
2018-05-13T21:33:07.692Z,38.07
2018-05-13T21:35:35.172Z,36.13
2018-05-13T21:38:02.648Z,35.50
2018-05-13T21:40:30.127Z,34.93
2018-05-13T21:42:57.594Z,31.27
2018-05-13T21:45:25.048Z,32.60
2018-05-13T21:47:52.535Z,30.60
2018-05-13T21:50:20.821Z,33.10
2018-05-13T21:52:48.300Z,30.50
2018-05-13T21:55:15.778Z,29.17
2018-05-13T21:57:43.281Z,33.17
2018-05-13T22:00:10.770Z,34.93
2018-05-13T22:02:38.267Z,34.03
2018-05-13T22:05:05.750Z,36.27
2018-05-13T22:07:34.007Z,31.42
2018-05-13T22:10:01.492Z,31.47
2018-05-13T22:12:29.744Z,38.33
2018-05-13T22:14:57.239Z,34.17
2018-05-13T22:17:24.765Z,37.40
2018-05-13T22:19:53.003Z,35.55
2018-05-13T22:22:20.485Z,36.50
2018-05-13T22:24:47.983Z,36.78
2018-05-13T22:27:16.239Z,33.65
2018-05-13T22:29:43.749Z,31.08
2018-05-13T22:32:11.267Z,34.67
2018-05-13T22:34:39.503Z,35.92
2018-05-13T22:37:06.968Z,37.70
2018-05-13T22:39:34.460Z,35.03
2018-05-13T22:42:02.697Z,35.28
2018-05-13T22:44:30.176Z,37.50
2018-05-13T22:46:57.667Z,32.95
2018-05-13T22:49:25.142Z,33.00
2018-05-13T22:51:52.636Z,32.47
2018-05-13T22:54:20.877Z,31.48
2018-05-13T22:56:48.360Z,32.87
2018-05-13T22:59:16.066Z,33.35
2018-05-13T23:01:44.292Z,33.17
2018-05-13T23:04:11.777Z,31.92
2018-05-13T23:06:39.252Z,31.08
2018-05-13T23:09:06.731Z,33.83
2018-05-13T23:11:34.231Z,32.53
2018-05-13T23:14:01.711Z,33.92
2018-05-13T23:16:29.242Z,34.90
2018-05-13T23:18:56.749Z,36.43
2018-05-13T23:21:25.008Z,33.47
2018-05-13T23:23:52.491Z,33.78
2018-05-13T23:26:20.751Z,31.85
2018-05-13T23:28:48.227Z,36.33
2018-05-13T23:31:15.717Z,33.97
2018-05-13T23:33:43.181Z,30.70
2018-05-13T23:36:10.673Z,32.63
2018-05-13T23:38:38.182Z,34.00
2018-05-13T23:41:05.673Z,32.03
2018-05-13T23:43:33.163Z,32.83
2018-05-13T23:46:01.409Z,30.90
2018-05-13T23:48:28.883Z,34.90
2018-05-13T23:50:57.112Z,32.30
2018-05-13T23:53:24.597Z,35.88
2018-05-13T23:55:52.065Z,36.55
2018-05-13T23:58:19.551Z,36.17
